sensor_id;sensor_type;location;lat;lon;timestamp;pressure;altitude;pressure_sealevel;temperature;humidity
2549;BME280;1284;53.520;10.248;2023-06-10T00:01:35;101151.72;;;19.72;73.92
2549;BME280;1284;53.520;10.248;2023-06-10T00:04:02;101150.25;;;19.60;74.07
2549;BME280;1284;53.520;10.248;2023-06-10T00:06:30;101151.03;;;19.57;73.91
2549;BME280;1284;53.520;10.248;2023-06-10T00:09:04;101150.00;;;19.44;74.11
2549;BME280;1284;53.520;10.248;2023-06-10T00:11:31;101143.69;;;19.51;73.58
2549;BME280;1284;53.520;10.248;2023-06-10T00:13:58;101147.69;;;19.36;73.69
2549;BME280;1284;53.520;10.248;2023-06-10T00:16:23;101144.59;;;19.37;73.80
2549;BME280;1284;53.520;10.248;2023-06-10T00:18:49;101144.97;;;19.36;73.79
2549;BME280;1284;53.520;10.248;2023-06-10T00:21:17;101148.50;;;19.29;73.72
2549;BME280;1284;53.520;10.248;2023-06-10T00:23:42;101141.91;;;19.23;73.88
2549;BME280;1284;53.520;10.248;2023-06-10T00:26:08;101141.59;;;19.14;74.28
2549;BME280;1284;53.520;10.248;2023-06-10T00:28:34;101143.22;;;19.05;74.66
2549;BME280;1284;53.520;10.248;2023-06-10T00:31:00;101140.13;;;19.03;74.74
2549;BME280;1284;53.520;10.248;2023-06-10T00:33:25;101147.88;;;19.08;74.58
2549;BME280;1284;53.520;10.248;2023-06-10T00:35:51;101151.41;;;19.08;74.25
2549;BME280;1284;53.520;10.248;2023-06-10T00:38:17;101151.41;;;19.08;73.68
2549;BME280;1284;53.520;10.248;2023-06-10T00:40:42;101150.22;;;19.06;74.09
2549;BME280;1284;53.520;10.248;2023-06-10T00:43:08;101154.53;;;19.03;74.06
2549;BME280;1284;53.520;10.248;2023-06-10T00:45:34;101153.06;;;18.88;74.49
2549;BME280;1284;53.520;10.248;2023-06-10T00:48:01;101154.28;;;18.80;74.50
2549;BME280;1284;53.520;10.248;2023-06-10T00:50:26;101151.94;;;18.78;74.33
2549;BME280;1284;53.520;10.248;2023-06-10T00:52:53;101157.41;;;18.78;74.61
2549;BME280;1284;53.520;10.248;2023-06-10T00:55:20;101161.41;;;18.60;75.19
2549;BME280;1284;53.520;10.248;2023-06-10T00:57:46;101150.88;;;18.58;75.04
2549;BME280;1284;53.520;10.248;2023-06-10T01:00:14;101157.50;;;18.61;74.84
2549;BME280;1284;53.520;10.248;2023-06-10T01:02:41;101158.28;;;18.58;74.62
2549;BME280;1284;53.520;10.248;2023-06-10T01:05:07;101152.47;;;18.52;74.75
2549;BME280;1284;53.520;10.248;2023-06-10T01:07:38;101159.09;;;18.48;74.57
2549;BME280;1284;53.520;10.248;2023-06-10T01:13:01;101161.03;;;18.58;74.25
2549;BME280;1284;53.520;10.248;2023-06-10T01:15:33;101162.94;;;18.61;74.09
2549;BME280;1284;53.520;10.248;2023-06-10T01:18:04;101162.19;;;18.53;74.09
2549;BME280;1284;53.520;10.248;2023-06-10T01:20:31;101162.19;;;18.53;74.02
2549;BME280;1284;53.520;10.248;2023-06-10T01:22:58;101163.75;;;18.54;73.86
2549;BME280;1284;53.520;10.248;2023-06-10T01:25:25;101171.19;;;18.47;73.97
2549;BME280;1284;53.520;10.248;2023-06-10T01:28:09;101172.38;;;18.42;73.75
2549;BME280;1284;53.520;10.248;2023-06-10T01:30:57;101163.03;;;18.33;73.83
2549;BME280;1284;53.520;10.248;2023-06-10T01:33:28;101167.69;;;18.36;73.92
2549;BME280;1284;53.520;10.248;2023-06-10T01:35:56;101159.53;;;18.22;74.41
2549;BME280;1284;53.520;10.248;2023-06-10T01:38:24;101161.88;;;18.16;74.75
2549;BME280;1284;53.520;10.248;2023-06-10T01:40:52;101163.84;;;18.12;74.29
2549;BME280;1284;53.520;10.248;2023-06-10T01:43:20;101159.19;;;18.13;74.33
2549;BME280;1284;53.520;10.248;2023-06-10T01:45:46;101160.75;;;18.14;74.32
2549;BME280;1284;53.520;10.248;2023-06-10T01:48:14;101159.22;;;17.91;75.06
2549;BME280;1284;53.520;10.248;2023-06-10T01:50:41;101160.78;;;17.89;75.22
2549;BME280;1284;53.520;10.248;2023-06-10T01:53:06;101158.44;;;17.94;74.92
2549;BME280;1284;53.520;10.248;2023-06-10T01:55:32;101154.16;;;17.97;74.73
2549;BME280;1284;53.520;10.248;2023-06-10T01:57:59;101158.03;;;17.92;74.87
2549;BME280;1284;53.520;10.248;2023-06-10T02:00:25;101151.44;;;17.93;75.11
2549;BME280;1284;53.520;10.248;2023-06-10T02:02:50;101146.75;;;17.97;74.51
2549;BME280;1284;53.520;10.248;2023-06-10T02:05:16;101154.94;;;17.94;74.54
2549;BME280;1284;53.520;10.248;2023-06-10T02:07:42;101156.13;;;17.82;75.37
2549;BME280;1284;53.520;10.248;2023-06-10T02:10:07;101160.41;;;17.73;75.33
2549;BME280;1284;53.520;10.248;2023-06-10T02:12:33;101153.03;;;17.63;75.86
2549;BME280;1284;53.520;10.248;2023-06-10T02:14:58;101153.41;;;17.68;75.93
2549;BME280;1284;53.520;10.248;2023-06-10T02:17:24;101160.03;;;17.71;76.06
2549;BME280;1284;53.520;10.248;2023-06-10T02:19:49;101154.16;;;17.65;75.84
2549;BME280;1284;53.520;10.248;2023-06-10T02:22:21;101158.06;;;17.71;75.21
2549;BME280;1284;53.520;10.248;2023-06-10T02:24:47;101151.06;;;17.70;74.95
2549;BME280;1284;53.520;10.248;2023-06-10T02:27:14;101162.34;;;17.62;75.46
2549;BME280;1284;53.520;10.248;2023-06-10T02:29:40;101145.63;;;17.56;75.70
2549;BME280;1284;53.520;10.248;2023-06-10T02:32:07;101154.19;;;17.55;75.76
2549;BME280;1284;53.520;10.248;2023-06-10T02:34:33;101156.13;;;17.54;75.93
2549;BME280;1284;53.520;10.248;2023-06-10T02:36:59;101154.59;;;17.53;75.86
2549;BME280;1284;53.520;10.248;2023-06-10T02:39:24;101154.94;;;17.52;75.98
2549;BME280;1284;53.520;10.248;2023-06-10T02:41:50;101152.25;;;17.62;75.65
2549;BME280;1284;53.520;10.248;2023-06-10T02:44:18;101151.06;;;17.46;75.76
2549;BME280;1284;53.520;10.248;2023-06-10T02:46:44;101156.88;;;17.41;76.52
2549;BME280;1284;53.520;10.248;2023-06-10T02:49:11;101162.72;;;17.36;76.36
2549;BME280;1284;53.520;10.248;2023-06-10T02:51:36;101153.75;;;17.42;76.19
2549;BME280;1284;53.520;10.248;2023-06-10T02:54:03;101159.59;;;17.34;76.06
2549;BME280;1284;53.520;10.248;2023-06-10T02:56:29;101163.88;;;17.31;76.44
2549;BME280;1284;53.520;10.248;2023-06-10T02:58:57;101161.53;;;17.33;76.14
2549;BME280;1284;53.520;10.248;2023-06-10T03:01:24;101163.88;;;17.24;76.47
2549;BME280;1284;53.520;10.248;2023-06-10T03:04:01;101165.03;;;17.23;76.58
2549;BME280;1284;53.520;10.248;2023-06-10T03:06:27;101175.16;;;17.23;76.93
2549;BME280;1284;53.520;10.248;2023-06-10T03:09:03;101169.28;;;17.17;76.65
2549;BME280;1284;53.520;10.248;2023-06-10T03:11:30;101166.97;;;17.15;76.76
2549;BME280;1284;53.520;10.248;2023-06-10T03:13:56;101168.50;;;17.13;77.02
2549;BME280;1284;53.520;10.248;2023-06-10T03:16:24;101168.13;;;17.18;76.78
2549;BME280;1284;53.520;10.248;2023-06-10T03:18:53;101175.50;;;17.21;77.12
2549;BME280;1284;53.520;10.248;2023-06-10T03:21:19;101172.41;;;17.15;76.77
2549;BME280;1284;53.520;10.248;2023-06-10T03:23:45;101165.78;;;17.13;77.14
2549;BME280;1284;53.520;10.248;2023-06-10T03:26:11;101169.28;;;17.10;77.15
2549;BME280;1284;53.520;10.248;2023-06-10T03:28:40;101173.94;;;17.09;77.67
2549;BME280;1284;53.520;10.248;2023-06-10T03:31:07;101165.78;;;17.09;77.64
2549;BME280;1284;53.520;10.248;2023-06-10T03:33:33;101170.03;;;17.03;77.65
2549;BME280;1284;53.520;10.248;2023-06-10T03:35:59;101165.00;;;17.09;77.50
2549;BME280;1284;53.520;10.248;2023-06-10T03:38:25;101164.63;;;17.07;77.59
2549;BME280;1284;53.520;10.248;2023-06-10T03:40:50;101171.63;;;17.15;77.58
2549;BME280;1284;53.520;10.248;2023-06-10T03:43:17;101163.44;;;17.08;77.62
2549;BME280;1284;53.520;10.248;2023-06-10T03:45:42;101172.00;;;17.10;77.55
2549;BME280;1284;53.520;10.248;2023-06-10T03:48:08;101164.59;;;17.03;78.08
2549;BME280;1284;53.520;10.248;2023-06-10T03:50:42;101172.34;;;16.91;78.51
2549;BME280;1284;53.520;10.248;2023-06-10T03:53:07;101171.22;;;16.99;78.43
2549;BME280;1284;53.520;10.248;2023-06-10T03:55:33;101172.75;;;17.03;78.30
2549;BME280;1284;53.520;10.248;2023-06-10T03:57:59;101182.50;;;17.11;77.80
2549;BME280;1284;53.520;10.248;2023-06-10T04:00:25;101176.66;;;17.02;78.37
2549;BME280;1284;53.520;10.248;2023-06-10T04:02:51;101174.72;;;17.13;78.31
2549;BME280;1284;53.520;10.248;2023-06-10T04:05:26;101179.78;;;17.15;77.86
2549;BME280;1284;53.520;10.248;2023-06-10T04:07:53;101178.66;;;17.30;77.25
2549;BME280;1284;53.520;10.248;2023-06-10T04:10:19;101177.09;;;17.22;77.50
2549;BME280;1284;53.520;10.248;2023-06-10T04:12:45;101177.47;;;17.28;77.99
2549;BME280;1284;53.520;10.248;2023-06-10T04:15:11;101189.91;;;17.25;78.17
2549;BME280;1284;53.520;10.248;2023-06-10T04:17:38;101171.66;;;17.29;77.96
2549;BME280;1284;53.520;10.248;2023-06-10T04:20:04;101170.50;;;17.34;78.08
2549;BME280;1284;53.520;10.248;2023-06-10T04:22:32;101175.94;;;17.37;78.09
2549;BME280;1284;53.520;10.248;2023-06-10T04:24:57;101174.75;;;17.38;77.81
2549;BME280;1284;53.520;10.248;2023-06-10T04:27:24;101175.53;;;17.35;78.59
2549;BME280;1284;53.520;10.248;2023-06-10T04:29:53;101175.53;;;17.39;78.52
2549;BME280;1284;53.520;10.248;2023-06-10T04:32:19;101179.44;;;17.38;78.71
2549;BME280;1284;53.520;10.248;2023-06-10T04:34:45;101173.59;;;17.46;78.27
2549;BME280;1284;53.520;10.248;2023-06-10T04:37:10;101177.94;;;17.51;77.98
2549;BME280;1284;53.520;10.248;2023-06-10T04:39:35;101176.38;;;17.57;77.83
2549;BME280;1284;53.520;10.248;2023-06-10T04:42:02;101183.00;;;17.59;78.35
2549;BME280;1284;53.520;10.248;2023-06-10T04:44:28;101171.72;;;17.61;78.07
2549;BME280;1284;53.520;10.248;2023-06-10T04:46:55;101184.56;;;17.74;77.75
2549;BME280;1284;53.520;10.248;2023-06-10T04:49:24;101176.75;;;17.83;76.88
2549;BME280;1284;53.520;10.248;2023-06-10T04:51:50;101188.81;;;17.75;77.31
2549;BME280;1284;53.520;10.248;2023-06-10T04:54:16;101181.41;;;17.79;77.47
2549;BME280;1284;53.520;10.248;2023-06-10T04:56:42;101178.69;;;17.79;77.27
2549;BME280;1284;53.520;10.248;2023-06-10T04:59:07;101179.84;;;17.85;77.50
2549;BME280;1284;53.520;10.248;2023-06-10T05:01:33;101186.09;;;17.89;77.83
2549;BME280;1284;53.520;10.248;2023-06-10T05:03:58;101183.34;;;17.96;77.21
2549;BME280;1284;53.520;10.248;2023-06-10T05:06:24;101182.94;;;18.09;77.21
2549;BME280;1284;53.520;10.248;2023-06-10T05:08:49;101183.34;;;18.11;77.03
2549;BME280;1284;53.520;10.248;2023-06-10T05:11:14;101182.16;;;18.19;76.97
2549;BME280;1284;53.520;10.248;2023-06-10T05:13:41;101176.94;;;18.73;77.13
2549;BME280;1284;53.520;10.248;2023-06-10T05:16:07;101181.56;;;19.49;74.51
2549;BME280;1284;53.520;10.248;2023-06-10T05:18:33;101186.50;;;20.09;71.64
2549;BME280;1284;53.520;10.248;2023-06-10T05:23:45;101205.06;;;21.25;65.36
2549;BME280;1284;53.520;10.248;2023-06-10T05:26:10;101195.84;;;21.66;62.89
2549;BME280;1284;53.520;10.248;2023-06-10T05:28:36;101200.22;;;21.86;61.42
2549;BME280;1284;53.520;10.248;2023-06-10T05:31:01;101207.66;;;22.09;61.33
2549;BME280;1284;53.520;10.248;2023-06-10T05:33:27;101202.97;;;22.29;59.66
2549;BME280;1284;53.520;10.248;2023-06-10T05:35:53;101203.19;;;22.38;59.15
2549;BME280;1284;53.520;10.248;2023-06-10T05:38:18;101205.38;;;22.47;59.40
2549;BME280;1284;53.520;10.248;2023-06-10T05:40:43;101206.13;;;22.70;58.47
2549;BME280;1284;53.520;10.248;2023-06-10T05:43:09;101207.91;;;22.18;58.32
2549;BME280;1284;53.520;10.248;2023-06-10T05:45:34;101204.16;;;22.28;58.60
2549;BME280;1284;53.520;10.248;2023-06-10T05:48:00;101201.38;;;22.51;58.65
2549;BME280;1284;53.520;10.248;2023-06-10T05:50:25;101194.69;;;22.72;59.20
2549;BME280;1284;53.520;10.248;2023-06-10T05:52:51;101194.81;;;22.84;57.45
2549;BME280;1284;53.520;10.248;2023-06-10T05:55:18;101196.06;;;22.99;57.64
2549;BME280;1284;53.520;10.248;2023-06-10T05:57:44;101198.00;;;23.18;57.72
2549;BME280;1284;53.520;10.248;2023-06-10T06:00:10;101185.69;;;23.07;56.81
2549;BME280;1284;53.520;10.248;2023-06-10T06:02:38;101187.31;;;23.04;57.10
2549;BME280;1284;53.520;10.248;2023-06-10T06:05:03;101194.56;;;23.14;56.27
2549;BME280;1284;53.520;10.248;2023-06-10T06:07:32;101184.25;;;23.18;57.03
2549;BME280;1284;53.520;10.248;2023-06-10T06:09:58;101189.22;;;23.23;56.77
2549;BME280;1284;53.520;10.248;2023-06-10T06:12:23;101183.66;;;23.27;56.33
2549;BME280;1284;53.520;10.248;2023-06-10T06:14:48;101186.75;;;23.13;56.45
2549;BME280;1284;53.520;10.248;2023-06-10T06:17:14;101187.53;;;23.29;56.88
2549;BME280;1284;53.520;10.248;2023-06-10T06:19:42;101182.31;;;23.35;56.75
2549;BME280;1284;53.520;10.248;2023-06-10T06:22:08;101185.44;;;23.17;56.25
2549;BME280;1284;53.520;10.248;2023-06-10T06:24:34;101176.31;;;23.04;57.19
2549;BME280;1284;53.520;10.248;2023-06-10T06:26:59;101189.50;;;23.29;57.56
2549;BME280;1284;53.520;10.248;2023-06-10T06:29:24;101179.84;;;23.21;56.29
2549;BME280;1284;53.520;10.248;2023-06-10T06:31:50;101182.22;;;23.39;56.16
2549;BME280;1284;53.520;10.248;2023-06-10T06:34:15;101177.31;;;23.46;56.29
2549;BME280;1284;53.520;10.248;2023-06-10T06:36:41;101186.72;;;23.65;56.50
2549;BME280;1284;53.520;10.248;2023-06-10T06:41:53;101190.31;;;23.78;56.39
2549;BME280;1284;53.520;10.248;2023-06-10T06:44:25;101180.22;;;23.87;56.11
2549;BME280;1284;53.520;10.248;2023-06-10T06:46:54;101188.03;;;23.89;55.96
2549;BME280;1284;53.520;10.248;2023-06-10T06:49:20;101192.84;;;24.01;55.90
2549;BME280;1284;53.520;10.248;2023-06-10T06:51:45;101196.38;;;24.17;56.00
2549;BME280;1284;53.520;10.248;2023-06-10T06:54:12;101189.78;;;24.28;55.63
2549;BME280;1284;53.520;10.248;2023-06-10T06:56:37;101189.28;;;24.33;54.84
2549;BME280;1284;53.520;10.248;2023-06-10T07:01:50;101190.75;;;24.50;54.58
2549;BME280;1284;53.520;10.248;2023-06-10T07:04:19;101195.63;;;24.58;54.24
2549;BME280;1284;53.520;10.248;2023-06-10T07:06:47;101188.94;;;24.72;53.87
2549;BME280;1284;53.520;10.248;2023-06-10T07:09:12;101190.88;;;24.59;53.40
2549;BME280;1284;53.520;10.248;2023-06-10T07:11:39;101191.22;;;24.61;54.15
2549;BME280;1284;53.520;10.248;2023-06-10T07:14:04;101194.28;;;24.79;54.75
2549;BME280;1284;53.520;10.248;2023-06-10T07:19:16;101198.69;;;25.01;53.55
2549;BME280;1284;53.520;10.248;2023-06-10T07:21:41;101197.84;;;25.04;53.59
2549;BME280;1284;53.520;10.248;2023-06-10T07:24:07;101203.88;;;25.25;53.14
2549;BME280;1284;53.520;10.248;2023-06-10T07:26:32;101206.56;;;25.41;53.02
2549;BME280;1284;53.520;10.248;2023-06-10T07:28:58;101213.38;;;25.36;52.09
2549;BME280;1284;53.520;10.248;2023-06-10T07:31:23;101199.03;;;25.29;52.64
2549;BME280;1284;53.520;10.248;2023-06-10T07:33:50;101208.22;;;25.51;52.57
2549;BME280;1284;53.520;10.248;2023-06-10T07:39:02;101207.28;;;25.79;51.71
2549;BME280;1284;53.520;10.248;2023-06-10T07:41:27;101210.13;;;25.88;51.96
2549;BME280;1284;53.520;10.248;2023-06-10T07:43:53;101207.47;;;25.97;51.93
2549;BME280;1284;53.520;10.248;2023-06-10T07:46:21;101214.06;;;26.12;51.75
2549;BME280;1284;53.520;10.248;2023-06-10T07:48:47;101211.28;;;26.12;50.89
2549;BME280;1284;53.520;10.248;2023-06-10T07:51:12;101201.75;;;26.26;51.44
2549;BME280;1284;53.520;10.248;2023-06-10T07:53:38;101209.53;;;26.40;50.09
2549;BME280;1284;53.520;10.248;2023-06-10T07:56:03;101215.19;;;26.36;50.94
2549;BME280;1284;53.520;10.248;2023-06-10T07:58:29;101205.66;;;26.37;51.00
2549;BME280;1284;53.520;10.248;2023-06-10T08:00:54;101201.63;;;26.51;50.58
2549;BME280;1284;53.520;10.248;2023-06-10T08:03:22;101202.44;;;26.39;49.92
2549;BME280;1284;53.520;10.248;2023-06-10T08:05:50;101206.69;;;26.31;49.81
2549;BME280;1284;53.520;10.248;2023-06-10T08:08:16;101208.75;;;26.39;50.89
2549;BME280;1284;53.520;10.248;2023-06-10T08:10:41;101216.78;;;26.68;50.08
2549;BME280;1284;53.520;10.248;2023-06-10T08:13:08;101209.47;;;26.74;50.85
2549;BME280;1284;53.520;10.248;2023-06-10T08:15:33;101211.22;;;26.81;50.18
2549;BME280;1284;53.520;10.248;2023-06-10T08:17:59;101216.69;;;27.02;49.47
2549;BME280;1284;53.520;10.248;2023-06-10T08:20:24;101214.63;;;27.24;49.29
2549;BME280;1284;53.520;10.248;2023-06-10T08:22:50;101211.97;;;27.12;48.98
2549;BME280;1284;53.520;10.248;2023-06-10T08:25:15;101206.94;;;27.19;49.60
2549;BME280;1284;53.520;10.248;2023-06-10T08:27:41;101214.25;;;27.35;49.10
2549;BME280;1284;53.520;10.248;2023-06-10T08:30:07;101215.06;;;27.44;49.51
2549;BME280;1284;53.520;10.248;2023-06-10T08:32:33;101211.81;;;27.37;49.07
2549;BME280;1284;53.520;10.248;2023-06-10T08:34:58;101217.56;;;27.70;48.58
2549;BME280;1284;53.520;10.248;2023-06-10T08:37:24;101210.78;;;27.71;47.82
2549;BME280;1284;53.520;10.248;2023-06-10T08:39:49;101206.50;;;27.70;47.98
2549;BME280;1284;53.520;10.248;2023-06-10T08:42:34;101211.66;;;27.49;47.74
2549;BME280;1284;53.520;10.248;2023-06-10T08:45:04;101213.38;;;27.56;48.50
2549;BME280;1284;53.520;10.248;2023-06-10T08:47:33;101211.72;;;27.86;48.34
2549;BME280;1284;53.520;10.248;2023-06-10T08:50:04;101210.72;;;28.01;48.23
2549;BME280;1284;53.520;10.248;2023-06-10T08:52:37;101208.09;;;28.16;48.03
2549;BME280;1284;53.520;10.248;2023-06-10T08:55:10;101209.63;;;28.44;47.43
2549;BME280;1284;53.520;10.248;2023-06-10T08:57:36;101212.22;;;28.47;47.89
2549;BME280;1284;53.520;10.248;2023-06-10T09:00:02;101207.19;;;28.55;47.07
2549;BME280;1284;53.520;10.248;2023-06-10T09:02:28;101223.00;;;28.73;45.79
2549;BME280;1284;53.520;10.248;2023-06-10T09:04:56;101204.81;;;28.72;46.60
2549;BME280;1284;53.520;10.248;2023-06-10T09:07:22;101203.75;;;28.69;46.99
2549;BME280;1284;53.520;10.248;2023-06-10T09:09:48;101206.44;;;28.96;47.66
2549;BME280;1284;53.520;10.248;2023-06-10T09:12:14;101209.03;;;29.09;46.65
2549;BME280;1284;53.520;10.248;2023-06-10T09:14:41;101198.84;;;29.15;46.18
2549;BME280;1284;53.520;10.248;2023-06-10T09:17:07;101202.53;;;29.21;46.17
2549;BME280;1284;53.520;10.248;2023-06-10T09:19:33;101200.63;;;29.27;45.13
2549;BME280;1284;53.520;10.248;2023-06-10T09:22:01;101204.38;;;29.24;46.06
2549;BME280;1284;53.520;10.248;2023-06-10T09:24:26;101194.22;;;29.45;46.82
2549;BME280;1284;53.520;10.248;2023-06-10T09:27:06;101193.34;;;29.62;45.82
2549;BME280;1284;53.520;10.248;2023-06-10T09:29:52;101197.63;;;29.72;45.34
2549;BME280;1284;53.520;10.248;2023-06-10T09:32:19;101196.75;;;30.04;44.41
2549;BME280;1284;53.520;10.248;2023-06-10T09:34:45;101200.28;;;29.67;44.76
2549;BME280;1284;53.520;10.248;2023-06-10T09:37:11;101197.97;;;29.65;45.75
2549;BME280;1284;53.520;10.248;2023-06-10T09:39:39;101194.22;;;29.68;45.29
2549;BME280;1284;53.520;10.248;2023-06-10T09:42:17;101198.81;;;29.80;45.78
2549;BME280;1284;53.520;10.248;2023-06-10T09:44:49;101195.44;;;30.00;45.54
2549;BME280;1284;53.520;10.248;2023-06-10T09:47:21;101196.63;;;30.22;46.40
2549;BME280;1284;53.520;10.248;2023-06-10T09:49:51;101200.50;;;30.40;44.65
2549;BME280;1284;53.520;10.248;2023-06-10T09:52:26;101196.88;;;30.48;44.53
2549;BME280;1284;53.520;10.248;2023-06-10T09:54:52;101199.06;;;30.59;43.96
2549;BME280;1284;53.520;10.248;2023-06-10T09:57:19;101194.94;;;30.69;44.27
2549;BME280;1284;53.520;10.248;2023-06-10T09:59:45;101203.09;;;30.43;43.90
2549;BME280;1284;53.520;10.248;2023-06-10T10:05:03;101196.38;;;30.50;43.81
2549;BME280;1284;53.520;10.248;2023-06-10T10:07:32;101192.28;;;30.60;44.56
2549;BME280;1284;53.520;10.248;2023-06-10T10:09:57;101191.59;;;30.65;44.48
2549;BME280;1284;53.520;10.248;2023-06-10T10:12:23;101189.69;;;30.56;44.09
2549;BME280;1284;53.520;10.248;2023-06-10T10:14:50;101197.25;;;30.99;44.11
2549;BME280;1284;53.520;10.248;2023-06-10T10:17:16;101192.81;;;31.22;43.82
2549;BME280;1284;53.520;10.248;2023-06-10T10:19:46;101197.19;;;31.43;43.82
2549;BME280;1284;53.520;10.248;2023-06-10T10:22:39;101199.59;;;31.21;43.20
2549;BME280;1284;53.520;10.248;2023-06-10T10:25:13;101209.34;;;31.46;43.21
2549;BME280;1284;53.520;10.248;2023-06-10T10:27:44;101207.75;;;31.59;42.87
2549;BME280;1284;53.520;10.248;2023-06-10T10:30:14;101206.66;;;31.71;42.89
2549;BME280;1284;53.520;10.248;2023-06-10T10:35:36;101196.56;;;31.94;42.79
2549;BME280;1284;53.520;10.248;2023-06-10T10:38:02;101204.94;;;31.94;42.86
2549;BME280;1284;53.520;10.248;2023-06-10T10:40:28;101197.59;;;32.17;43.54
2549;BME280;1284;53.520;10.248;2023-06-10T10:42:59;101200.88;;;32.41;42.14
2549;BME280;1284;53.520;10.248;2023-06-10T10:45:27;101202.06;;;32.29;42.12
2549;BME280;1284;53.520;10.248;2023-06-10T10:47:54;101198.53;;;32.34;41.81
2549;BME280;1284;53.520;10.248;2023-06-10T10:50:23;101193.06;;;31.79;42.08
2549;BME280;1284;53.520;10.248;2023-06-10T10:52:52;101193.03;;;31.93;42.40
2549;BME280;1284;53.520;10.248;2023-06-10T10:55:19;101194.31;;;32.18;41.68
2549;BME280;1284;53.520;10.248;2023-06-10T10:58:14;101193.13;;;32.25;41.55
2549;BME280;1284;53.520;10.248;2023-06-10T11:00:44;101202.56;;;32.07;42.01
2549;BME280;1284;53.520;10.248;2023-06-10T11:03:15;101183.13;;;31.72;42.27
2549;BME280;1284;53.520;10.248;2023-06-10T11:05:45;101195.44;;;31.66;42.56
2549;BME280;1284;53.520;10.248;2023-06-10T11:08:15;101194.56;;;31.74;42.99
2549;BME280;1284;53.520;10.248;2023-06-10T11:10:51;101194.28;;;31.92;42.77
2549;BME280;1284;53.520;10.248;2023-06-10T11:13:20;101190.00;;;32.17;42.66
2549;BME280;1284;53.520;10.248;2023-06-10T11:15:47;101196.41;;;32.23;42.77
2549;BME280;1284;53.520;10.248;2023-06-10T11:18:15;101188.91;;;31.89;42.58
2549;BME280;1284;53.520;10.248;2023-06-10T11:21:05;101196.72;;;32.05;42.71
2549;BME280;1284;53.520;10.248;2023-06-10T11:23:33;101195.81;;;31.93;42.25
2549;BME280;1284;53.520;10.248;2023-06-10T11:29:03;101187.47;;;32.19;42.57
2549;BME280;1284;53.520;10.248;2023-06-10T11:34:00;101181.78;;;32.54;42.48
2549;BME280;1284;53.520;10.248;2023-06-10T11:36:27;101173.78;;;32.67;42.53
2549;BME280;1284;53.520;10.248;2023-06-10T11:38:56;101176.44;;;32.87;41.34
2549;BME280;1284;53.520;10.248;2023-06-10T11:41:23;101174.09;;;33.06;41.44
2549;BME280;1284;53.520;10.248;2023-06-10T11:43:49;101168.81;;;33.13;41.69
2549;BME280;1284;53.520;10.248;2023-06-10T11:46:15;101167.63;;;33.25;41.80
2549;BME280;1284;53.520;10.248;2023-06-10T11:48:51;101171.72;;;33.35;41.50
2549;BME280;1284;53.520;10.248;2023-06-10T11:51:16;101174.19;;;33.22;41.57
2549;BME280;1284;53.520;10.248;2023-06-10T11:53:49;101170.59;;;33.16;41.02
2549;BME280;1284;53.520;10.248;2023-06-10T11:56:29;101168.88;;;33.24;41.35
2549;BME280;1284;53.520;10.248;2023-06-10T11:58:56;101166.66;;;33.39;41.35
2549;BME280;1284;53.520;10.248;2023-06-10T12:01:24;101172.09;;;33.54;40.77
2549;BME280;1284;53.520;10.248;2023-06-10T12:03:58;101166.84;;;33.72;40.05
2549;BME280;1284;53.520;10.248;2023-06-10T12:06:24;101163.25;;;33.66;39.68
2549;BME280;1284;53.520;10.248;2023-06-10T12:08:53;101163.53;;;33.26;40.40
2549;BME280;1284;53.520;10.248;2023-06-10T12:11:19;101159.31;;;33.00;40.76
2549;BME280;1284;53.520;10.248;2023-06-10T12:13:47;101166.47;;;33.06;41.02
2549;BME280;1284;53.520;10.248;2023-06-10T12:16:16;101165.94;;;33.02;40.73
2549;BME280;1284;53.520;10.248;2023-06-10T12:18:45;101163.34;;;32.99;41.06
2549;BME280;1284;53.520;10.248;2023-06-10T12:21:24;101166.28;;;33.15;40.72
2549;BME280;1284;53.520;10.248;2023-06-10T12:24:09;101165.94;;;33.02;41.35
2549;BME280;1284;53.520;10.248;2023-06-10T12:26:42;101155.38;;;32.86;40.01
2549;BME280;1284;53.520;10.248;2023-06-10T12:29:25;101142.38;;;32.77;40.93
2549;BME280;1284;53.520;10.248;2023-06-10T12:32:01;101145.66;;;32.76;40.78
2549;BME280;1284;53.520;10.248;2023-06-10T12:34:35;101156.41;;;32.52;40.89
2549;BME280;1284;53.520;10.248;2023-06-10T12:37:03;101149.03;;;32.54;40.70
2549;BME280;1284;53.520;10.248;2023-06-10T12:39:30;101138.72;;;32.66;40.87
2549;BME280;1284;53.520;10.248;2023-06-10T12:41:56;101126.09;;;32.70;40.44
2549;BME280;1284;53.520;10.248;2023-06-10T12:44:29;101127.56;;;32.66;40.63
2549;BME280;1284;53.520;10.248;2023-06-10T12:46:55;101124.88;;;32.77;40.08
2549;BME280;1284;53.520;10.248;2023-06-10T12:49:21;101129.13;;;32.67;40.33
2549;BME280;1284;53.520;10.248;2023-06-10T12:51:47;101124.63;;;32.80;39.99
2549;BME280;1284;53.520;10.248;2023-06-10T12:54:15;101128.72;;;32.85;39.69
2549;BME280;1284;53.520;10.248;2023-06-10T12:59:27;101123.63;;;32.83;39.57
2549;BME280;1284;53.520;10.248;2023-06-10T13:01:53;101125.31;;;33.01;39.05
2549;BME280;1284;53.520;10.248;2023-06-10T13:04:20;101124.72;;;32.92;39.05
2549;BME280;1284;53.520;10.248;2023-06-10T13:06:47;101106.03;;;32.72;40.06
2549;BME280;1284;53.520;10.248;2023-06-10T13:09:15;101112.22;;;32.50;39.93
2549;BME280;1284;53.520;10.248;2023-06-10T13:11:41;101111.00;;;32.57;39.85
2549;BME280;1284;53.520;10.248;2023-06-10T13:14:08;101119.66;;;32.59;39.61
2549;BME280;1284;53.520;10.248;2023-06-10T13:16:35;101119.22;;;32.71;39.22
2549;BME280;1284;53.520;10.248;2023-06-10T13:19:03;101104.25;;;32.69;39.31
2549;BME280;1284;53.520;10.248;2023-06-10T13:21:32;101111.38;;;32.75;39.37
2549;BME280;1284;53.520;10.248;2023-06-10T13:23:57;101116.78;;;32.79;38.87
2549;BME280;1284;53.520;10.248;2023-06-10T13:26:23;101110.09;;;32.71;38.38
2549;BME280;1284;53.520;10.248;2023-06-10T13:28:49;101107.88;;;32.44;38.84
2549;BME280;1284;53.520;10.248;2023-06-10T13:31:17;101100.44;;;32.41;39.43
2549;BME280;1284;53.520;10.248;2023-06-10T13:33:44;101101.38;;;32.58;39.54